This is the latest recevied weather packets stored in our database for station/object LKTB. If no packets are shown the sender has not sent any weather packets the latest 1 day(s).
| Time | Temp. | Humidity | Pressure | Rain* | Wind** | Luminosity | Snow |
|---|---|---|---|---|---|---|---|
| 1777991551 | 26.11° C | 26% | 1006 hPa | - | 6.26 m/s, 150° | - | - |
| 1777990882 | 26.11° C | 22% | - | - | 7.15 m/s, 170° | - | - |
| 1777989753 | 25° C | 22% | 1006 hPa | - | 7.15 m/s, 160° | - | - |
| 1777987944 | 26.11° C | 21% | 1006 hPa | - | 7.15 m/s, 170° | - | - |
| 1777987269 | 25° C | 25% | - | - | 8.05 m/s, 150° | - | - |
| 1777986147 | 25° C | 27% | 1007 hPa | - | 5.81 m/s, 150° | - | - |
| 1777984345 | 25° C | 27% | 1007 hPa | - | 5.81 m/s, 160° | - | - |
| 1777983668 | 23.89° C | 31% | - | - | 6.26 m/s, 150° | - | - |
| 1777982584 | 23.89° C | 31% | 1008 hPa | - | 5.81 m/s, 150° | - | - |
| 1777980743 | 23.89° C | 31% | 1008 hPa | - | 5.81 m/s, 160° | - | - |
| 1777980069 | 22.78° C | 31% | - | - | 6.26 m/s, 170° | - | - |
| 1777978957 | 23.89° C | 31% | 1008 hPa | - | 5.36 m/s, 160° | - | - |
| 1777977484 | 23.89° C | 31% | 1008 hPa | - | 4.47 m/s, 150° | - | - |
| 1777977137 | 22.22° C | 35% | 1008 hPa | - | 4.47 m/s, 150° | - | - |
| 1777976469 | 22.22° C | 35% | - | - | 5.36 m/s, 150° | - | - |
| 1777975347 | 22.22° C | 35% | 1008 hPa | - | 5.36 m/s, 160° | - | - |
| 1777973544 | 21.11° C | 37% | 1009 hPa | - | 5.81 m/s, 140° | - | - |
| 1777972866 | 20° C | 40% | - | - | 5.36 m/s, 150° | - | - |
| 1777971746 | 20° C | 40% | 1009 hPa | - | 4.47 m/s, 130° | - | - |
| 1777969944 | 18.89° C | 39% | 1009 hPa | - | 5.36 m/s, 140° | - | - |
| 1777969268 | 17.78° C | 42% | - | - | 5.36 m/s, 130° | - | - |
| 1777968151 | 17.78° C | 42% | 1009 hPa | - | 3.58 m/s, 130° | - | - |
| 1777966344 | 17.22° C | 45% | 1009 hPa | - | 3.58 m/s, 150° | - | - |
| 1777965667 | 17.22° C | 42% | - | - | 5.36 m/s, 160° | - | - |
| 1777964552 | 17.22° C | 42% | 1010 hPa | - | 5.36 m/s, 140° | - | - |
* Rain since midnight (hover to see other rain measurements)
** Current wind speed in m/s (hover to see current wind gust speed)